Terminal Aerodrome Forecast
Issued by NWS

Home | Current Version | Previous Version | Text Only | Print | Product List | Glossary On
Versions: 1 2 3 4 5 6 7 8 9 10 11 12 13 14
000
FTUS43 KMPX 240520
TAFRNH
TAF
KRNH 240520Z 2406/2506 VRB03KT 2SM -RA BR SCT006 OVC013
     FM240800 VRB03KT 2SM -RA BR OVC006
     FM241600 02009KT 6SM BR VCSH OVC010
     FM242000 03010KT P6SM OVC015=

USA.gov is the U.S. government's official web portal to all federal, state and local government web resources and services.